Time,TemperatureF,DewpointF,PressureIn,WindDirection,WindDirectionDegrees,WindSpeedMPH,WindSpeedGustMPH,Humidity,HourlyPrecipIn,Conditions,Clouds,dailyrainin,SoftwareType,DateUTC
2013-02-15 00:06:00,28.6,27.0,30.00,West,277,0.0,0.0,94,0.00,,,0.00,weatherlink.com 1.10,2013-02-15 05:06:00,
2013-02-15 00:21:00,29.3,28.0,30.00,West,277,0.0,0.0,94,0.00,,,0.00,weatherlink.com 1.10,2013-02-15 05:21:00,
2013-02-15 00:36:00,29.6,28.0,30.00,West,277,0.0,1.0,94,0.00,,,0.00,weatherlink.com 1.10,2013-02-15 05:36:00,
2013-02-15 00:51:00,29.4,28.0,30.00,West,277,0.0,0.0,94,0.00,,,0.00,weatherlink.com 1.10,2013-02-15 05:51:00,
2013-02-15 01:06:00,29.2,28.0,30.00,West,277,0.0,1.0,94,0.00,,,0.00,weatherlink.com 1.10,2013-02-15 06:06:00,
2013-02-15 01:21:00,29.4,28.0,30.00,West,277,0.0,1.0,94,0.00,,,0.00,weatherlink.com 1.10,2013-02-15 06:21:00,
2013-02-15 01:36:00,29.6,28.0,30.00,West,277,0.0,1.0,94,0.00,,,0.00,weatherlink.com 1.10,2013-02-15 06:36:00,
2013-02-15 01:51:00,29.9,28.0,30.00,West,277,0.0,0.0,94,0.00,,,0.00,weatherlink.com 1.10,2013-02-15 06:51:00,
2013-02-15 02:06:00,29.5,28.0,29.99,West,277,0.0,0.0,93,0.00,,,0.00,weatherlink.com 1.10,2013-02-15 07:06:00,
2013-02-15 02:21:00,28.9,27.0,29.99,West,277,0.0,0.0,93,0.00,,,0.00,weatherlink.com 1.10,2013-02-15 07:21:00,
2013-02-15 02:36:00,28.8,27.0,29.99,West,277,0.0,0.0,93,0.00,,,0.00,weatherlink.com 1.10,2013-02-15 07:36:00,
2013-02-15 02:51:00,28.7,27.0,29.99,West,277,0.0,0.0,94,0.00,,,0.00,weatherlink.com 1.10,2013-02-15 07:51:00,
2013-02-15 03:06:00,28.6,27.0,29.98,West,277,0.0,1.0,94,0.00,,,0.00,weatherlink.com 1.10,2013-02-15 08:06:00,
2013-02-15 03:21:00,28.4,27.0,29.99,West,277,0.0,0.0,94,0.00,,,0.00,weatherlink.com 1.10,2013-02-15 08:21:00,
2013-02-15 03:36:00,28.2,27.0,29.98,West,277,0.0,1.0,94,0.00,,,0.00,weatherlink.com 1.10,2013-02-15 08:36:00,
2013-02-15 03:51:00,27.9,26.0,29.98,West,277,0.0,1.0,94,0.00,,,0.00,weatherlink.com 1.10,2013-02-15 08:51:00,
2013-02-15 04:06:00,27.8,26.0,29.99,West,277,0.0,1.0,94,0.00,,,0.00,weatherlink.com 1.10,2013-02-15 09:06:00,
2013-02-15 04:21:00,27.6,26.0,29.99,West,277,0.0,0.0,95,0.00,,,0.00,weatherlink.com 1.10,2013-02-15 09:21:00,
2013-02-15 04:36:00,27.7,27.0,29.99,West,277,0.0,1.0,95,0.00,,,0.00,weatherlink.com 1.10,2013-02-15 09:36:00,
2013-02-15 04:51:00,27.7,27.0,29.99,West,277,0.0,2.0,95,0.00,,,0.00,weatherlink.com 1.10,2013-02-15 09:51:00,
2013-02-15 05:06:00,27.5,26.0,29.99,West,277,0.0,0.0,95,0.00,,,0.00,weatherlink.com 1.10,2013-02-15 10:06:00,
2013-02-15 05:21:00,27.6,26.0,29.99,West,277,0.0,1.0,95,0.00,,,0.00,weatherlink.com 1.10,2013-02-15 10:21:00,
2013-02-15 05:36:00,27.1,26.0,30.00,West,277,0.0,0.0,95,0.00,,,0.00,weatherlink.com 1.10,2013-02-15 10:36:00,
2013-02-15 05:51:00,27.2,26.0,29.99,West,277,0.0,1.0,95,0.00,,,0.00,weatherlink.com 1.10,2013-02-15 10:51:00,
2013-02-15 06:06:00,27.5,27.0,30.00,West,277,0.0,0.0,96,0.00,,,0.00,weatherlink.com 1.10,2013-02-15 11:06:00,
2013-02-15 06:21:00,27.1,26.0,30.00,West,277,0.0,0.0,95,0.00,,,0.00,weatherlink.com 1.10,2013-02-15 11:21:00,
2013-02-15 06:36:00,26.7,26.0,30.01,West,277,0.0,0.0,96,0.00,,,0.00,weatherlink.com 1.10,2013-02-15 11:36:00,
2013-02-15 06:51:00,26.5,26.0,30.01,West,277,0.0,0.0,96,0.00,,,0.00,weatherlink.com 1.10,2013-02-15 11:51:00,
2013-02-15 07:06:00,26.2,25.0,30.01,West,277,0.0,0.0,96,0.00,,,0.00,weatherlink.com 1.10,2013-02-15 12:06:00,
2013-02-15 07:21:00,26.0,25.0,30.02,West,277,0.0,0.0,96,0.00,,,0.00,weatherlink.com 1.10,2013-02-15 12:21:00,
2013-02-15 07:37:00,26.2,25.0,30.02,West,277,0.0,0.0,96,0.00,,,0.00,weatherlink.com 1.10,2013-02-15 12:37:00,
2013-02-15 07:52:00,27.0,26.0,30.02,West,277,0.0,0.0,96,0.00,,,0.00,weatherlink.com 1.10,2013-02-15 12:52:00,
2013-02-15 08:07:00,27.9,27.0,30.03,West,277,0.0,1.0,96,0.00,,,0.00,weatherlink.com 1.10,2013-02-15 13:07:00,
2013-02-15 08:22:00,30.5,30.0,30.04,West,277,0.0,0.0,97,0.00,,,0.00,weatherlink.com 1.10,2013-02-15 13:22:00,
2013-02-15 08:37:00,31.9,31.0,30.04,West,277,0.0,0.0,96,0.00,,,0.00,weatherlink.com 1.10,2013-02-15 13:37:00,
2013-02-15 08:52:00,34.5,33.0,30.03,West,277,0.0,0.0,95,0.00,,,0.00,weatherlink.com 1.10,2013-02-15 13:52:00,
2013-02-15 09:07:00,37.1,35.0,30.03,West,277,0.0,0.0,91,0.00,,,0.00,weatherlink.com 1.10,2013-02-15 14:07:00,
2013-02-15 09:22:00,38.2,34.0,30.03,West,277,1.0,1.0,86,0.00,,,0.00,weatherlink.com 1.10,2013-02-15 14:22:00,
2013-02-15 09:37:00,39.5,35.0,30.03,West,277,0.0,2.0,83,0.00,,,0.00,weatherlink.com 1.10,2013-02-15 14:37:00,
2013-02-15 09:52:00,40.9,35.0,30.03,West,277,0.0,3.0,80,0.00,,,0.00,weatherlink.com 1.10,2013-02-15 14:52:00,
2013-02-15 10:07:00,42.7,36.0,30.03,West,277,1.0,4.0,77,0.00,,,0.00,weatherlink.com 1.10,2013-02-15 15:07:00,
2013-02-15 10:22:00,44.6,37.0,30.02,SW,223,0.0,4.0,75,0.00,,,0.00,weatherlink.com 1.10,2013-02-15 15:22:00,
2013-02-15 10:37:00,46.3,37.0,30.02,WNW,298,3.0,5.0,69,0.00,,,0.00,weatherlink.com 1.10,2013-02-15 15:37:00,
2013-02-15 10:52:00,48.8,37.0,30.02,WNW,296,10.0,11.0,65,0.00,,,0.00,weatherlink.com 1.10,2013-02-15 15:52:00,
2013-02-15 11:07:00,49.3,37.0,30.01,WSW,241,8.0,13.0,64,0.00,,,0.00,weatherlink.com 1.10,2013-02-15 16:07:00,
2013-02-15 11:22:00,49.2,37.0,30.00,WSW,250,6.0,12.0,63,0.00,,,0.00,weatherlink.com 1.10,2013-02-15 16:22:00,
2013-02-15 11:37:00,50.0,38.0,30.00,WSW,246,8.0,10.0,63,0.00,,,0.00,weatherlink.com 1.10,2013-02-15 16:37:00,
2013-02-15 11:52:00,50.3,38.0,29.99,WSW,242,4.0,14.0,62,0.00,,,0.00,weatherlink.com 1.10,2013-02-15 16:52:00,
2013-02-15 12:08:00,50.8,37.0,29.99,NNW,329,7.0,20.0,59,0.00,,,0.00,weatherlink.com 1.10,2013-02-15 17:08:00,
2013-02-15 12:23:00,51.9,39.0,29.98,SW,234,2.0,13.0,61,0.00,,,0.00,weatherlink.com 1.10,2013-02-15 17:23:00,
2013-02-15 12:38:00,51.9,36.0,29.97,South,173,9.0,18.0,56,0.00,,,0.00,weatherlink.com 1.10,2013-02-15 17:38:00,
2013-02-15 12:53:00,52.4,36.0,29.97,West,263,6.0,13.0,53,0.00,,,0.00,weatherlink.com 1.10,2013-02-15 17:53:00,
2013-02-15 13:08:00,52.9,36.0,29.96,WSW,257,13.0,17.0,54,0.00,,,0.00,weatherlink.com 1.10,2013-02-15 18:08:00,
2013-02-15 13:23:00,53.3,36.0,29.96,WNW,288,1.0,16.0,53,0.00,,,0.00,weatherlink.com 1.10,2013-02-15 18:23:00,
2013-02-15 13:38:00,53.2,36.0,29.95,WNW,283,9.0,13.0,53,0.00,,,0.00,weatherlink.com 1.10,2013-02-15 18:38:00,
2013-02-15 13:53:00,52.8,36.0,29.96,NW,306,5.0,11.0,54,0.00,,,0.00,weatherlink.com 1.10,2013-02-15 18:53:00,
2013-02-15 14:08:00,53.2,36.0,29.95,WSW,249,8.0,16.0,53,0.00,,,0.00,weatherlink.com 1.10,2013-02-15 19:08:00,
2013-02-15 14:23:00,52.6,37.0,29.95,NW,317,6.0,14.0,55,0.00,,,0.00,weatherlink.com 1.10,2013-02-15 19:23:00,
2013-02-15 14:38:00,52.6,37.0,29.95,NW,309,7.0,12.0,56,0.00,,,0.00,weatherlink.com 1.10,2013-02-15 19:38:00,
2013-02-15 14:53:00,52.0,36.0,29.95,NW,305,6.0,11.0,54,0.00,,,0.00,weatherlink.com 1.10,2013-02-15 19:53:00,
2013-02-15 15:08:00,51.5,36.0,29.95,NNW,329,0.0,13.0,55,0.00,,,0.00,weatherlink.com 1.10,2013-02-15 20:08:00,
2013-02-15 15:23:00,50.7,34.0,29.95,NW,306,3.0,11.0,54,0.00,,,0.00,weatherlink.com 1.10,2013-02-15 20:23:00,
2013-02-15 15:38:00,50.6,35.0,29.95,NW,306,6.0,10.0,55,0.00,,,0.00,weatherlink.com 1.10,2013-02-15 20:38:00,
2013-02-15 15:53:00,49.8,34.0,29.95,NW,313,2.0,11.0,55,0.00,,,0.00,weatherlink.com 1.10,2013-02-15 20:53:00,
2013-02-15 16:08:00,49.1,33.0,29.95,NW,317,3.0,8.0,55,0.00,,,0.00,weatherlink.com 1.10,2013-02-15 21:08:00,
2013-02-15 16:23:00,49.4,33.0,29.94,NNW,329,3.0,7.0,53,0.00,,,0.00,weatherlink.com 1.10,2013-02-15 21:23:00,
2013-02-15 16:38:00,48.5,33.0,29.94,NW,313,3.0,7.0,55,0.00,,,0.00,weatherlink.com 1.10,2013-02-15 21:38:00,
2013-02-15 16:53:00,47.6,31.0,29.94,NW,315,3.0,6.0,53,0.00,,,0.00,weatherlink.com 1.10,2013-02-15 21:53:00,
2013-02-15 17:08:00,46.9,30.0,29.94,NW,324,4.0,8.0,52,0.00,,,0.00,weatherlink.com 1.10,2013-02-15 22:08:00,
2013-02-15 17:23:00,46.6,31.0,29.94,NW,323,3.0,6.0,54,0.00,,,0.00,weatherlink.com 1.10,2013-02-15 22:23:00,
2013-02-15 17:38:00,46.4,31.0,29.94,North,360,0.0,4.0,55,0.00,,,0.00,weatherlink.com 1.10,2013-02-15 22:38:00,
2013-02-15 17:53:00,46.2,32.0,29.95,NNW,333,0.0,5.0,57,0.00,,,0.00,weatherlink.com 1.10,2013-02-15 22:53:00,
2013-02-15 18:08:00,45.9,32.0,29.95,NNW,342,1.0,6.0,58,0.00,,,0.00,weatherlink.com 1.10,2013-02-15 23:08:00,
2013-02-15 18:23:00,45.5,31.0,29.96,NNW,340,2.0,10.0,57,0.00,,,0.00,weatherlink.com 1.10,2013-02-15 23:23:00,
2013-02-15 18:38:00,44.7,32.0,29.96,NW,317,1.0,9.0,61,0.00,,,0.00,weatherlink.com 1.10,2013-02-15 23:38:00,
2013-02-15 18:53:00,43.6,34.0,29.96,NNW,330,9.0,16.0,68,0.00,,,0.00,weatherlink.com 1.10,2013-02-15 23:53:00,
2013-02-15 19:08:00,41.9,35.0,29.97,North,350,4.0,9.0,75,0.00,,,0.00,weatherlink.com 1.10,2013-02-16 00:08:00,
2013-02-15 19:23:00,41.0,34.0,29.98,NW,317,1.0,10.0,77,0.00,,,0.00,weatherlink.com 1.10,2013-02-16 00:23:00,
2013-02-15 19:38:00,40.5,35.0,29.98,NNW,340,0.0,6.0,80,0.00,,,0.00,weatherlink.com 1.10,2013-02-16 00:38:00,
2013-02-15 19:53:00,39.8,35.0,29.98,NNW,328,2.0,6.0,83,0.00,,,0.00,weatherlink.com 1.10,2013-02-16 00:53:00,
2013-02-15 20:08:00,39.1,35.0,29.98,NW,309,3.0,6.0,86,0.00,,,0.00,weatherlink.com 1.10,2013-02-16 01:08:00,
2013-02-15 20:23:00,38.7,36.0,29.99,NNW,331,0.0,5.0,88,0.00,,,0.00,weatherlink.com 1.10,2013-02-16 01:23:00,
2013-02-15 20:38:00,38.2,35.0,29.99,NNW,331,0.0,5.0,89,0.01,,,0.01,weatherlink.com 1.10,2013-02-16 01:38:00,
2013-02-15 20:53:00,37.2,35.0,30.00,NW,320,3.0,8.0,90,0.02,,,0.02,weatherlink.com 1.10,2013-02-16 01:53:00,
2013-02-15 21:08:00,36.4,34.0,30.01,NW,313,2.0,6.0,91,0.04,,,0.04,weatherlink.com 1.10,2013-02-16 02:08:00,
2013-02-15 21:23:00,35.7,34.0,30.01,WNW,303,0.0,3.0,92,0.05,,,0.05,weatherlink.com 1.10,2013-02-16 02:23:00,
2013-02-15 21:38:00,34.5,33.0,30.01,WNW,303,0.0,4.0,92,0.05,,,0.06,weatherlink.com 1.10,2013-02-16 02:38:00,
2013-02-15 21:53:00,33.7,32.0,30.01,WNW,303,0.0,2.0,94,0.06,,,0.08,weatherlink.com 1.10,2013-02-16 02:53:00,
2013-02-15 22:08:00,33.4,32.0,30.02,WNW,303,0.0,1.0,94,0.05,,,0.09,weatherlink.com 1.10,2013-02-16 03:08:00,
2013-02-15 22:23:00,33.1,32.0,30.02,WNW,303,0.0,0.0,95,0.06,,,0.11,weatherlink.com 1.10,2013-02-16 03:23:00,
2013-02-15 22:38:00,33.0,32.0,30.02,WNW,303,0.0,0.0,95,0.06,,,0.12,weatherlink.com 1.10,2013-02-16 03:38:00,
2013-02-15 22:53:00,32.9,32.0,30.01,WNW,303,0.0,0.0,96,0.06,,,0.14,weatherlink.com 1.10,2013-02-16 03:53:00,
2013-02-15 23:08:00,32.9,32.0,30.01,WNW,303,0.0,0.0,96,0.05,,,0.14,weatherlink.com 1.10,2013-02-16 04:08:00,
2013-02-15 23:23:00,32.9,32.0,30.00,WNW,303,0.0,0.0,96,0.04,,,0.15,weatherlink.com 1.10,2013-02-16 04:23:00,
2013-02-15 23:38:00,33.0,32.0,30.01,WNW,303,0.0,0.0,96,0.03,,,0.15,weatherlink.com 1.10,2013-02-16 04:38:00,
2013-02-15 23:53:00,32.9,32.0,30.01,WNW,303,0.0,0.0,96,0.02,,,0.16,weatherlink.com 1.10,2013-02-16 04:53:00,